createdAt,value
2022-10-05T00:03:10.780Z,69.89
2022-10-05T00:10:16.877Z,70.16
2022-10-05T00:17:20.377Z,70.41
2022-10-05T00:24:22.014Z,71.00
2022-10-05T00:31:30.467Z,70.94
2022-10-05T00:38:32.055Z,71.41
2022-10-05T00:45:38.484Z,71.62
2022-10-05T00:52:54.734Z,71.61
2022-10-05T00:59:59.783Z,72.00
2022-10-05T01:07:08.079Z,72.28
2022-10-05T01:14:21.995Z,72.63
2022-10-05T01:21:25.063Z,72.54
2022-10-05T01:28:49.486Z,72.53
2022-10-05T01:36:03.038Z,72.44
2022-10-05T01:43:27.571Z,72.43
2022-10-05T01:50:53.534Z,72.32
2022-10-05T01:58:32.234Z,72.40
2022-10-05T02:06:10.466Z,72.99
2022-10-05T02:13:15.549Z,72.90
2022-10-05T02:20:25.736Z,73.17
2022-10-05T02:27:28.738Z,73.15
2022-10-05T02:34:39.171Z,73.15
2022-10-05T02:41:57.761Z,73.04
2022-10-05T02:49:08.658Z,73.48
2022-10-05T02:56:35.002Z,73.47
2022-10-05T03:03:39.216Z,73.43
2022-10-05T03:10:57.311Z,73.57
2022-10-05T03:18:03.222Z,73.90
2022-10-05T03:25:18.262Z,73.84
2022-10-05T03:32:22.992Z,74.23
2022-10-05T03:39:34.115Z,74.08
2022-10-05T03:46:45.651Z,74.84
2022-10-05T03:53:49.700Z,74.55
2022-10-05T04:00:56.193Z,74.65
2022-10-05T04:08:22.768Z,75.23
2022-10-05T04:15:37.722Z,75.42
2022-10-05T04:23:27.122Z,75.16
2022-10-05T04:30:28.923Z,75.45
2022-10-05T04:37:58.526Z,75.29
2022-10-05T04:45:22.833Z,75.53
2022-10-05T04:52:44.004Z,75.30
2022-10-05T05:00:19.767Z,75.78
2022-10-05T05:07:32.710Z,75.90
2022-10-05T05:15:00.868Z,76.08
2022-10-05T05:22:28.985Z,76.11
2022-10-05T05:29:34.121Z,76.26
2022-10-05T05:36:45.183Z,76.49
2022-10-05T05:43:53.262Z,76.94
2022-10-05T05:51:07.568Z,76.86
2022-10-05T05:58:25.416Z,76.45
2022-10-05T06:06:00.778Z,76.03
2022-10-05T06:13:06.350Z,76.27
2022-10-05T06:20:22.322Z,76.62
2022-10-05T06:27:39.130Z,76.56
2022-10-05T06:35:19.675Z,75.91
2022-10-05T06:42:40.653Z,75.81
2022-10-05T06:50:38.421Z,75.67
2022-10-05T06:58:07.746Z,75.30
2022-10-05T07:05:47.045Z,75.03
2022-10-05T07:13:23.275Z,74.37
2022-10-05T07:20:32.197Z,74.65
2022-10-05T07:28:07.159Z,73.53
2022-10-05T07:35:53.010Z,72.39
2022-10-05T07:43:20.167Z,71.72
2022-10-05T07:50:31.914Z,68.48
2022-10-05T07:57:53.915Z,66.12
2022-10-05T08:05:00.248Z,66.58
2022-10-05T08:12:46.859Z,65.86
2022-10-05T08:20:29.137Z,65.56
2022-10-05T08:27:52.732Z,65.16
2022-10-05T08:35:21.732Z,64.83
2022-10-05T08:42:38.458Z,64.49
2022-10-05T08:50:03.154Z,62.96
2022-10-05T08:57:22.866Z,62.19
2022-10-05T09:04:35.933Z,62.62
2022-10-05T09:11:56.327Z,62.18
2022-10-05T09:19:07.385Z,61.51
2022-10-05T09:26:46.440Z,61.42
2022-10-05T09:33:57.016Z,60.72
2022-10-05T09:41:36.395Z,60.93
2022-10-05T09:49:06.495Z,60.12
2022-10-05T09:56:10.853Z,58.94
2022-10-05T10:03:43.357Z,57.68
2022-10-05T10:10:56.752Z,57.62
2022-10-05T10:18:29.338Z,56.84
2022-10-05T10:26:08.470Z,56.79
2022-10-05T10:33:31.654Z,55.45
2022-10-05T10:41:10.119Z,53.20
2022-10-05T10:48:44.026Z,53.13
2022-10-05T10:56:03.776Z,53.52
2022-10-05T11:03:20.185Z,52.05
2022-10-05T11:10:58.863Z,51.64
2022-10-05T11:18:06.522Z,51.32
2022-10-05T11:25:08.008Z,47.35
2022-10-05T11:32:34.001Z,45.33
2022-10-05T11:40:03.429Z,43.18
2022-10-05T11:47:25.154Z,40.76
2022-10-05T11:55:09.686Z,41.45
2022-10-05T12:02:19.281Z,42.83
2022-10-05T12:10:09.823Z,44.86
2022-10-05T12:17:11.265Z,45.50
2022-10-05T12:24:41.784Z,41.09
2022-10-05T12:31:46.182Z,37.67
2022-10-05T12:39:06.064Z,36.38
2022-10-05T12:46:19.834Z,34.81
2022-10-05T12:53:43.546Z,33.92
2022-10-05T13:00:57.713Z,33.87
2022-10-05T13:08:17.872Z,32.29
2022-10-05T13:15:27.819Z,33.88
2022-10-05T13:22:36.963Z,34.43
2022-10-05T13:29:40.006Z,35.01
2022-10-05T13:37:10.871Z,36.31
2022-10-05T13:44:18.859Z,36.69
2022-10-05T13:51:47.084Z,38.48
2022-10-05T13:59:17.713Z,39.88
2022-10-05T14:06:29.843Z,41.76
2022-10-05T14:13:40.879Z,42.54
2022-10-05T14:20:42.445Z,42.72
2022-10-05T14:27:57.047Z,43.59
2022-10-05T14:35:12.761Z,44.73
2022-10-05T14:42:24.981Z,46.06
2022-10-05T14:49:27.471Z,46.42
2022-10-05T14:56:40.980Z,46.92
2022-10-05T15:03:46.604Z,47.41
2022-10-05T15:10:50.897Z,47.11
2022-10-05T15:17:59.718Z,48.06
2022-10-05T15:25:16.370Z,47.53
2022-10-05T15:32:41.514Z,47.54
2022-10-05T15:39:52.476Z,47.63
2022-10-05T15:46:59.846Z,48.13
2022-10-05T15:54:31.733Z,48.75
2022-10-05T16:01:33.357Z,49.37
2022-10-05T16:08:55.735Z,49.66
2022-10-05T16:16:11.915Z,50.33
2022-10-05T16:23:38.793Z,50.26
2022-10-05T16:30:58.596Z,50.74
2022-10-05T16:38:22.000Z,51.11
2022-10-05T16:45:29.638Z,51.73
2022-10-05T16:52:31.192Z,52.10
2022-10-05T17:00:00.266Z,52.82
2022-10-05T17:07:32.767Z,53.15
2022-10-05T17:14:39.628Z,53.53
2022-10-05T17:22:00.409Z,54.33
2022-10-05T17:29:12.921Z,54.99
2022-10-05T17:36:17.911Z,55.23
2022-10-05T17:43:24.262Z,56.42
2022-10-05T17:51:20.485Z,56.80
2022-10-05T17:58:27.286Z,57.63
2022-10-05T18:05:29.321Z,58.35
2022-10-05T18:12:36.793Z,59.07
2022-10-05T18:19:39.462Z,59.56
2022-10-05T18:26:57.225Z,59.95
2022-10-05T18:34:11.378Z,60.86
2022-10-05T18:41:22.518Z,61.96
2022-10-05T18:48:34.287Z,62.02
2022-10-05T18:55:43.965Z,62.47
2022-10-05T19:03:08.868Z,63.19
2022-10-05T19:10:38.654Z,63.88
2022-10-05T19:17:50.703Z,63.75
2022-10-05T19:25:05.466Z,64.34
2022-10-05T19:32:27.134Z,64.99
2022-10-05T19:39:37.123Z,65.93
2022-10-05T19:46:49.420Z,65.50
2022-10-05T19:53:51.890Z,66.10
2022-10-05T20:01:00.842Z,65.70
2022-10-05T20:08:03.765Z,66.27
2022-10-05T20:15:25.777Z,66.75
2022-10-05T20:22:33.083Z,67.69
2022-10-05T20:29:38.998Z,68.10
2022-10-05T20:36:43.153Z,68.05
2022-10-05T20:43:44.703Z,68.10
2022-10-05T20:50:47.245Z,68.63
2022-10-05T20:57:48.834Z,68.66
2022-10-05T21:04:50.415Z,68.84
2022-10-05T21:11:52.866Z,69.53
2022-10-05T21:18:54.430Z,69.82
2022-10-05T21:25:55.967Z,69.92
2022-10-05T21:32:57.518Z,69.85
2022-10-05T21:39:59.249Z,70.42
2022-10-05T21:47:01.134Z,70.59
2022-10-05T21:54:08.145Z,70.98
2022-10-05T22:01:09.814Z,70.97
2022-10-05T22:08:28.077Z,71.09
2022-10-05T22:15:30.172Z,71.08
2022-10-05T22:22:33.046Z,71.60
2022-10-05T22:29:34.615Z,71.48
2022-10-05T22:36:36.289Z,72.25
2022-10-05T22:43:38.069Z,72.11
2022-10-05T22:50:39.634Z,72.05
2022-10-05T22:57:41.760Z,72.90
2022-10-05T23:04:43.309Z,72.62
2022-10-05T23:11:46.559Z,72.85
2022-10-05T23:18:49.035Z,73.76
2022-10-05T23:25:50.592Z,74.59
2022-10-05T23:32:52.140Z,75.17
2022-10-05T23:39:53.704Z,75.58
2022-10-05T23:46:55.233Z,76.29
2022-10-05T23:53:56.765Z,76.77
